NORTHEAST SUFFOLK  -  Winter Weather Advisory Winter Weather Advisory        NORTHERN NASSAU  -  Winter Weather Advisory Winter Weather Advisory        NORTHERN QUEENS  -  Winter Weather Advisory Winter Weather Advisory        NORTHWEST SUFFOLK  -  Winter Weather Advisory Winter Weather Advisory        SOUTHEAST SUFFOLK  -  Winter Weather Advisory Winter Weather Advisory        SOUTHERN NASSAU  -  Winter Weather Advisory Winter Weather Advisory        SOUTHERN QUEENS  -  Winter Weather Advisory Winter Weather Advisory        SOUTHWEST SUFFOLK  -  Winter Weather Advisory Winter Weather Advisory      

Active alerts

Northern Queens
  Details for Northern Queens Winter Weather Advisory
Southern Queens
  Details for Southern Queens Winter Weather Advisory
Northern Nassau
  Details for Northern Nassau Winter Weather Advisory
Southern Nassau
  Details for Southern Nassau Winter Weather Advisory
Northwest Suffolk
  Details for Northwest Suffolk Winter Weather Advisory
Southwest Suffolk
  Details for Southwest Suffolk Winter Weather Advisory
Northeast Suffolk
  Details for Northeast Suffolk Winter Weather Advisory
Southeast Suffolk
  Details for Southeast Suffolk Winter Weather Advisory


WXM80 ListenWXM80 Stop

You find our weather info also at:

UK Metoffice

WeatherCloud

Weather Underground

Northeastern Weather Network

AWEKAS

Citizen Weather Observer Program (CWOP)

HAMweather, WeatherForYou, PWS Weather


Weather Underground History page Text

Daily Summary for February 20, 2019 Units:  English    Metric   Both
« Previous Day
Next Day »
Daily Weekly Monthly Yearly Custom
  Current: High: Low: Average:
Temperature: 26.5 °F 28.5 °F 25.8 °F 26.6 °F
Dew Point: 16.7 °F 17.0 °F 12.9 °F 14.7 °F
Humidity: 66 % 68 % 54 % 61 %
Wind Speed: 0.0 mph 7.4 mph 0.0 mph 1.5 mph
Wind Gust: 2.0 mph 9.2 mph - -
Wind:Calm - - NE
Pressure: 30.61 in 30.62 in 30.57 in -
Precipitation: 0.00 in      
Historical Graphs
 
 
Tabular Data for February 20, 2019
Time Temperature Dew Point Pressure Wind Wind Speed Wind Gust Humidity Rainfall Rate (Hourly)
00:04 28.5 °F 13.9 °F 30.57 in NNE 1.2 mph 6.9 mph 54 % 0.00 in
00:09 28.4 °F 13.9 °F 30.57 in NNE 2.4 mph 5.8 mph 54 % 0.00 in
00:14 28.4 °F 13.9 °F 30.57 in NNE 1.8 mph 4.0 mph 54 % 0.00 in
00:19 28.3 °F 14.2 °F 30.57 in NNE 2.2 mph 6.9 mph 55 % 0.00 in
00:24 28.2 °F 14.1 °F 30.57 in North 2.2 mph 5.0 mph 55 % 0.00 in
00:29 28.1 °F 14.0 °F 30.57 in NNE 0.9 mph 3.5 mph 55 % 0.00 in
00:34 28.1 °F 14.0 °F 30.57 in North 1.9 mph 4.0 mph 55 % 0.00 in
00:39 28.1 °F 14.0 °F 30.57 in North 1.5 mph 5.8 mph 55 % 0.00 in
00:44 28.0 °F 13.5 °F 30.57 in NNE 4.0 mph 5.8 mph 54 % 0.00 in
00:49 27.9 °F 13.4 °F 30.57 in NNE 2.9 mph 8.1 mph 54 % 0.00 in
00:54 27.9 °F 13.4 °F 30.57 in NNE 3.8 mph 6.9 mph 54 % 0.00 in
00:59 27.9 °F 13.4 °F 30.57 in NNE 1.0 mph 3.5 mph 54 % 0.00 in
01:04 27.8 °F 13.3 °F 30.58 in NNE 3.5 mph 7.0 mph 54 % 0.00 in
01:09 27.8 °F 13.7 °F 30.58 in North 1.4 mph 3.5 mph 55 % 0.00 in
01:14 27.7 °F 13.6 °F 30.58 in North 3.0 mph 4.0 mph 55 % 0.00 in
01:19 27.6 °F 13.5 °F 30.58 in NNE 2.1 mph 3.5 mph 55 % 0.00 in
01:23 27.6 °F 13.5 °F 30.58 in NNE 1.1 mph 3.5 mph 55 % 0.00 in
01:29 27.4 °F 13.3 °F 30.58 in NNE 4.5 mph 6.0 mph 55 % 0.00 in
01:34 27.4 °F 12.9 °F 30.59 in North 2.4 mph 5.8 mph 54 % 0.00 in
01:39 27.3 °F 13.2 °F 30.58 in NNE 2.8 mph 5.8 mph 55 % 0.00 in
01:44 27.3 °F 13.7 °F 30.58 in NNE 1.2 mph 2.0 mph 56 % 0.00 in
01:49 27.2 °F 13.6 °F 30.58 in NNE 2.5 mph 5.8 mph 56 % 0.00 in
01:54 27.2 °F 14.0 °F 30.58 in NNE 0.2 mph 3.5 mph 57 % 0.00 in
01:59 27.1 °F 13.5 °F 30.59 in NNE 0.2 mph 3.5 mph 56 % 0.00 in
02:04 27.0 °F 13.8 °F 30.59 in NNE 0.3 mph 3.5 mph 57 % 0.00 in
02:09 27.0 °F 13.8 °F 30.59 in NNE 3.9 mph 5.0 mph 57 % 0.00 in
02:14 26.9 °F 13.7 °F 30.59 in NNE 1.5 mph 6.0 mph 57 % 0.00 in
02:19 26.9 °F 14.1 °F 30.58 in NNE 2.9 mph 4.6 mph 58 % 0.00 in
02:24 26.8 °F 13.6 °F 30.59 in NNE 0.1 mph 1.2 mph 57 % 0.00 in
02:29 26.8 °F 14.0 °F 30.59 in Calm     58 % 0.00 in
02:34 26.7 °F 13.9 °F 30.59 in NNE 0.1 mph   58 % 0.00 in
02:39 26.7 °F 13.9 °F 30.59 in Calm   3.5 mph 58 % 0.00 in
02:44 26.7 °F 13.9 °F 30.59 in Calm     58 % 0.00 in
02:49 26.6 °F 13.4 °F 30.59 in North 0.5 mph 3.5 mph 57 % 0.00 in
02:54 26.5 °F 13.7 °F 30.59 in Calm   1.2 mph 58 % 0.00 in
02:59 26.5 °F 13.7 °F 30.60 in North 1.4 mph 3.5 mph 58 % 0.00 in
03:04 26.5 °F 13.7 °F 30.60 in NNE 2.6 mph 4.0 mph 58 % 0.00 in
03:09 26.4 °F 13.6 °F 30.60 in NNE 3.0 mph 5.0 mph 58 % 0.00 in
03:14 26.4 °F 14.0 °F 30.60 in NNE 1.5 mph 3.0 mph 59 % 0.00 in
03:19 26.4 °F 14.0 °F 30.61 in Calm     59 % 0.00 in
03:24 26.4 °F 14.0 °F 30.60 in NNE 0.5 mph 3.5 mph 59 % 0.00 in
03:29 26.4 °F 14.0 °F 30.60 in NNE 0.9 mph 4.6 mph 59 % 0.00 in
03:34 26.3 °F 14.3 °F 30.60 in NNE 2.0 mph 4.6 mph 60 % 0.00 in
03:39 26.3 °F 14.3 °F 30.59 in NNE 0.2 mph 3.5 mph 60 % 0.00 in
03:44 26.3 °F 14.3 °F 30.59 in Calm   1.2 mph 60 % 0.00 in
03:49 26.2 °F 13.8 °F 30.60 in NNE 2.8 mph 5.0 mph 59 % 0.00 in
03:54 26.2 °F 13.8 °F 30.59 in NNE 1.4 mph 3.5 mph 59 % 0.00 in
03:59 26.2 °F 13.8 °F 30.59 in NNE 1.2 mph 2.3 mph 59 % 0.00 in
04:04 26.2 °F 13.8 °F 30.60 in NNE 2.2 mph 5.0 mph 59 % 0.00 in
04:09 26.1 °F 13.7 °F 30.60 in NNE 1.8 mph 4.6 mph 59 % 0.00 in
04:14 26.1 °F 13.7 °F 30.60 in NNE 2.4 mph 5.8 mph 59 % 0.00 in
04:19 26.1 °F 13.7 °F 30.59 in NNE 4.3 mph 5.8 mph 59 % 0.00 in
04:24 26.0 °F 13.6 °F 30.60 in NNE 1.8 mph 7.0 mph 59 % 0.00 in
04:29 26.0 °F 14.0 °F 30.60 in NNE 1.4 mph 5.8 mph 60 % 0.00 in
04:34 26.0 °F 14.0 °F 30.60 in NNE 4.9 mph 7.0 mph 60 % 0.00 in
04:39 26.0 °F 14.4 °F 30.59 in NNE 2.2 mph 5.0 mph 61 % 0.00 in
04:44 25.9 °F 14.7 °F 30.59 in NE 7.4 mph 9.2 mph 62 % 0.00 in
04:49 25.9 °F 14.7 °F 30.59 in NNE 2.0 mph 5.8 mph 62 % 0.00 in
04:54 25.9 °F 15.0 °F 30.60 in NNE 1.8 mph 4.6 mph 63 % 0.00 in
04:59 25.9 °F 15.0 °F 30.60 in NNE 4.7 mph 5.8 mph 63 % 0.00 in
05:04 25.9 °F 15.0 °F 30.59 in NNE 0.3 mph 3.5 mph 63 % 0.00 in
05:09 25.9 °F 15.4 °F 30.59 in Calm   3.5 mph 64 % 0.00 in
05:14 25.9 °F 15.4 °F 30.59 in NNE 0.1 mph 1.2 mph 64 % 0.00 in
05:19 25.8 °F 15.3 °F 30.59 in NNE 3.1 mph 6.9 mph 64 % 0.00 in
05:24 25.8 °F 15.3 °F 30.59 in NE 1.6 mph 3.0 mph 64 % 0.00 in
05:29 25.8 °F 15.3 °F 30.59 in NE 0.6 mph 4.6 mph 64 % 0.00 in
05:34 25.8 °F 15.6 °F 30.58 in Calm     65 % 0.00 in
05:39 25.8 °F 15.6 °F 30.58 in NNE 3.4 mph 5.0 mph 65 % 0.00 in
05:44 25.8 °F 15.6 °F 30.57 in Calm     65 % 0.00 in
05:49 25.8 °F 16.0 °F 30.57 in ENE 3.7 mph 4.0 mph 66 % 0.00 in
05:54 25.8 °F 16.0 °F 30.57 in ENE 2.7 mph 5.0 mph 66 % 0.00 in
05:59 25.8 °F 16.3 °F 30.58 in ENE 2.1 mph 3.5 mph 67 % 0.00 in
06:04 25.8 °F 16.3 °F 30.58 in NNE 0.2 mph 3.5 mph 67 % 0.00 in
06:09 25.8 °F 16.0 °F 30.58 in Calm     66 % 0.00 in
06:14 25.8 °F 16.0 °F 30.58 in ENE 0.2 mph 3.5 mph 66 % 0.00 in
06:19 25.8 °F 16.0 °F 30.58 in Calm     66 % 0.00 in
06:24 25.8 °F 16.0 °F 30.58 in ENE 0.1 mph 3.5 mph 66 % 0.00 in
06:29 25.8 °F 16.0 °F 30.58 in NE 0.2 mph 1.2 mph 66 % 0.00 in
06:34 25.8 °F 16.3 °F 30.58 in Calm   3.5 mph 67 % 0.00 in
06:39 25.8 °F 16.3 °F 30.58 in ENE 1.8 mph 4.0 mph 67 % 0.00 in
06:44 25.8 °F 16.3 °F 30.58 in NE 0.7 mph 3.5 mph 67 % 0.00 in
06:49 25.9 °F 16.4 °F 30.58 in ENE 0.1 mph 2.3 mph 67 % 0.00 in
06:54 26.0 °F 16.9 °F 30.57 in ENE 1.8 mph 3.5 mph 68 % 0.00 in
06:59 26.0 °F 16.9 °F 30.57 in ENE 1.2 mph 3.5 mph 68 % 0.00 in
07:04 26.0 °F 16.9 °F 30.57 in ENE 2.4 mph 5.0 mph 68 % 0.00 in
07:09 26.0 °F 16.9 °F 30.58 in ENE 0.3 mph 3.5 mph 68 % 0.00 in
07:14 26.1 °F 16.6 °F 30.59 in Calm   3.5 mph 67 % 0.00 in
07:19 26.1 °F 16.6 °F 30.60 in Calm     67 % 0.00 in
07:24 26.1 °F 16.6 °F 30.60 in Calm     67 % 0.00 in
07:29 26.2 °F 16.7 °F 30.61 in Calm     67 % 0.00 in
07:34 26.2 °F 16.7 °F 30.61 in Calm     67 % 0.00 in
07:39 26.3 °F 16.8 °F 30.61 in ENE 0.1 mph 2.0 mph 67 % 0.00 in
07:44 26.3 °F 16.5 °F 30.62 in Calm     66 % 0.00 in
07:49 26.4 °F 16.9 °F 30.61 in Calm     67 % 0.00 in
07:54 26.5 °F 17.0 °F 30.61 in NE 0.1 mph 1.2 mph 67 % 0.00 in
07:59 26.5 °F 16.7 °F 30.61 in Calm   2.0 mph 66 % 0.00 in
Crab Meadow Weather
Compliments of Weather Underground - 1.75 mb

Script developed by  Jim McMurry - jmcmurry@mwt.net Adapted for the template by  Wim van der Kuil - Leuven-Template.eu

Weather Terms: Wind Advisory - Sustained winds of 30 mph or greater or gusts to 45 mph or greater for a duration of one hour or longer.